Time;durP1;ratioP1;P1;durP2;ratioP2;P2;SDS_P1;SDS_P2;PMS_P1;PMS_P2;Temp;Humidity;BMP_temperature;BMP_pressure;BME280_temperature;BME280_humidity;BME280_pressure;Samples;Min_cycle;Max_cycle;Signal;HPM_P1;HPM_P2
2022/03/18 00:00:16;;;;;;;40.13;35.40;;;6.70;99.90;;;;;;5083902;28;21200;-58
2022/03/18 00:02:56;;;;;;;38.25;34.65;;;6.60;99.90;;;;;;5104654;27;20740;-59
2022/03/18 00:05:36;;;;;;;40.28;36.20;;;6.60;99.90;;;;;;5105075;27;20534;-58
2022/03/18 00:08:15;;;;;;;38.72;34.83;;;6.60;99.90;;;;;;5105250;27;20681;-59
2022/03/18 00:10:55;;;;;;;41.42;36.08;;;6.50;99.90;;;;;;5145508;27;21190;-59
2022/03/18 00:13:35;;;;;;;41.00;36.85;;;6.50;99.90;;;;;;5084132;27;20531;-59
2022/03/18 00:16:14;;;;;;;40.05;36.13;;;6.40;99.90;;;;;;5084864;27;20528;-59
2022/03/18 00:18:56;;;;;;;40.63;36.53;;;6.40;99.90;;;;;;5125819;27;20601;-58
2022/03/18 00:21:36;;;;;;;41.63;37.42;;;6.30;99.90;;;;;;5104985;27;20657;-58
2022/03/18 00:24:16;;;;;;;43.30;38.85;;;6.20;99.90;;;;;;5084780;27;20559;-59
2022/03/18 00:26:56;;;;;;;41.45;37.25;;;6.20;99.90;;;;;;5146577;27;20657;-59
2022/03/18 00:29:36;;;;;;;42.60;38.05;;;6.10;99.90;;;;;;5104497;27;20685;-59
2022/03/18 00:32:15;;;;;;;42.88;38.45;;;6.00;99.90;;;;;;5084335;28;21212;-59
2022/03/18 00:34:55;;;;;;;43.53;39.00;;;6.00;99.90;;;;;;5105089;27;20537;-59
2022/03/18 00:37:35;;;;;;;45.35;40.78;;;6.00;99.90;;;;;;5147061;27;20539;-59
2022/03/18 00:40:15;;;;;;;44.65;40.40;;;5.90;99.90;;;;;;5084151;28;20664;-59
2022/03/18 00:42:56;;;;;;;46.17;41.47;;;5.90;99.90;;;;;;5146365;27;21067;-59
2022/03/18 00:45:36;;;;;;;44.15;40.00;;;6.00;99.90;;;;;;5084829;27;20531;-59
2022/03/18 00:54:10;;;;;;;42.47;37.95;;;5.90;99.90;;;;;;5146404;27;20539;-59
2022/03/18 00:56:50;;;;;;;46.25;38.83;;;5.90;99.90;;;;;;5125887;27;20547;-59
2022/03/18 00:59:31;;;;;;;41.67;37.47;;;5.90;99.90;;;;;;5104306;27;20665;-58
2022/03/18 01:02:10;;;;;;;42.85;38.50;;;5.90;99.90;;;;;;5084206;28;20687;-59
2022/03/18 01:04:50;;;;;;;44.17;39.60;;;5.90;99.90;;;;;;5084834;27;20685;-59
2022/03/18 01:07:30;;;;;;;44.15;39.40;;;5.90;99.90;;;;;;5084909;27;21134;-59
2022/03/18 01:10:10;;;;;;;43.90;39.22;;;5.80;99.90;;;;;;5104383;27;20538;-59
2022/03/18 01:12:49;;;;;;;44.88;40.42;;;5.80;99.90;;;;;;5084578;28;20672;-59
2022/03/18 01:15:29;;;;;;;41.83;37.53;;;5.80;99.90;;;;;;5084267;28;20672;-59
2022/03/18 01:18:09;;;;;;;42.13;37.65;;;5.80;99.90;;;;;;5105471;27;20530;-59
2022/03/18 01:20:49;;;;;;;40.97;36.55;;;5.70;99.90;;;;;;5083597;28;20664;-59
2022/03/18 01:23:29;;;;;;;43.15;38.60;;;5.70;99.90;;;;;;5084210;28;20671;-59
2022/03/18 01:26:08;;;;;;;42.30;37.65;;;5.60;99.90;;;;;;5084958;28;20679;-59
2022/03/18 01:28:48;;;;;;;43.63;39.50;;;5.60;99.90;;;;;;5084783;27;20569;-59
2022/03/18 01:31:28;;;;;;;42.50;38.25;;;5.60;99.90;;;;;;5145678;27;21210;-59
2022/03/18 01:34:08;;;;;;;41.85;37.35;;;5.60;99.90;;;;;;5145331;27;20538;-59
2022/03/18 01:36:49;;;;;;;40.25;35.85;;;5.50;99.90;;;;;;5084742;27;20548;-59
2022/03/18 01:39:29;;;;;;;40.55;36.25;;;5.50;99.90;;;;;;5104388;27;20538;-59
2022/03/18 01:42:21;;;;;;;39.58;35.47;;;5.40;99.90;;;;;;5125500;27;20990;-59
2022/03/18 01:45:01;;;;;;;41.67;37.38;;;5.40;99.90;;;;;;5084359;28;20837;-59
2022/03/18 01:47:43;;;;;;;41.05;36.75;;;5.40;99.90;;;;;;5125721;27;20574;-59
2022/03/18 01:50:23;;;;;;;39.50;35.33;;;5.40;99.90;;;;;;5083265;28;20555;-59
2022/03/18 01:53:03;;;;;;;40.03;36.08;;;5.30;99.90;;;;;;5084485;27;20591;-59
2022/03/18 01:55:43;;;;;;;39.58;35.55;;;5.30;99.90;;;;;;5084247;28;20671;-59
2022/03/18 01:58:23;;;;;;;39.75;35.55;;;5.40;99.90;;;;;;5084968;28;21209;-59
2022/03/18 02:01:04;;;;;;;38.97;35.10;;;5.40;99.90;;;;;;5083629;28;20684;-59
2022/03/18 02:03:44;;;;;;;36.42;32.65;;;5.40;99.90;;;;;;5104701;27;20685;-59
2022/03/18 02:06:24;;;;;;;40.15;35.92;;;5.40;99.90;;;;;;5084909;27;20944;-59
2022/03/18 02:09:04;;;;;;;36.78;33.08;;;5.30;99.90;;;;;;5105509;27;21062;-59
2022/03/18 02:11:44;;;;;;;40.92;36.92;;;5.30;99.90;;;;;;5084687;28;20700;-59
2022/03/18 02:14:32;;;;;;;41.38;37.33;;;5.30;99.90;;;;;;5080365;27;20555;-59
2022/03/18 02:17:14;;;;;;;38.35;33.72;;;5.30;99.90;;;;;;5084970;28;20660;-59
2022/03/18 02:19:53;;;;;;;37.50;33.60;;;5.30;99.90;;;;;;5145782;27;20538;-59
2022/03/18 02:22:37;;;;;;;38.28;34.00;;;5.30;99.90;;;;;;5084788;27;20573;-59
2022/03/18 02:25:17;;;;;;;37.80;33.65;;;5.20;99.90;;;;;;5125489;27;20607;-59
2022/03/18 02:27:59;;;;;;;39.55;35.70;;;5.20;99.90;;;;;;5085180;28;20543;-59
2022/03/18 02:30:38;;;;;;;34.90;31.30;;;5.20;99.90;;;;;;5104477;27;20669;-59
2022/03/18 02:33:19;;;;;;;35.80;32.20;;;5.20;99.90;;;;;;5084848;28;20531;-59
2022/03/18 02:35:58;;;;;;;37.40;33.50;;;5.20;99.90;;;;;;5145897;27;21242;-59
2022/03/18 02:38:38;;;;;;;38.83;34.83;;;5.20;99.90;;;;;;5084780;28;20656;-59
2022/03/18 02:41:18;;;;;;;38.83;34.75;;;5.20;99.90;;;;;;5124930;27;20548;-59
2022/03/18 02:43:57;;;;;;;38.30;34.25;;;5.20;99.90;;;;;;5084398;28;20680;-59
2022/03/18 02:46:37;;;;;;;35.25;31.55;;;5.20;99.90;;;;;;5085024;27;20544;-59
2022/03/18 02:49:19;;;;;;;36.35;32.50;;;5.10;99.90;;;;;;5083761;28;21030;-59
2022/03/18 02:51:59;;;;;;;36.53;32.80;;;5.10;99.90;;;;;;5102449;27;20673;-59
2022/03/18 02:54:39;;;;;;;34.97;31.40;;;5.00;99.90;;;;;;5084070;27;20561;-59
2022/03/18 02:57:18;;;;;;;35.00;31.27;;;5.00;99.90;;;;;;5084615;27;20547;-59
2022/03/18 02:59:58;;;;;;;36.17;32.58;;;5.00;99.90;;;;;;5083915;28;20691;-59
2022/03/18 03:02:38;;;;;;;35.95;32.53;;;5.00;99.90;;;;;;5084190;28;20664;-59
2022/03/18 03:08:15;;;;;;;34.28;30.58;;;5.00;99.90;;;;;;5104930;27;21017;-59
2022/03/18 03:10:55;;;;;;;33.17;29.58;;;5.00;99.90;;;;;;5083730;28;21204;-59
2022/03/18 03:13:35;;;;;;;37.22;33.22;;;5.00;99.90;;;;;;5083659;28;20955;-59
2022/03/18 03:16:15;;;;;;;33.90;30.17;;;5.10;99.90;;;;;;5085254;28;20676;-59
2022/03/18 03:18:55;;;;;;;34.75;31.10;;;5.10;99.90;;;;;;5084337;28;20664;-59
2022/03/18 03:21:35;;;;;;;34.63;29.98;;;5.10;99.90;;;;;;5084163;28;20707;-59
2022/03/18 03:24:14;;;;;;;34.67;31.10;;;5.10;99.90;;;;;;5124860;27;20548;-59
2022/03/18 03:26:54;;;;;;;33.75;30.45;;;5.10;99.90;;;;;;5084958;28;20663;-59
2022/03/18 03:29:34;;;;;;;35.10;31.30;;;5.10;99.90;;;;;;5104357;27;20541;-59
2022/03/18 03:32:14;;;;;;;32.95;29.38;;;5.10;99.90;;;;;;5105204;27;20558;-59
2022/03/18 03:34:55;;;;;;;31.83;28.60;;;5.10;99.90;;;;;;5084683;27;20956;-59
2022/03/18 03:37:35;;;;;;;33.28;29.58;;;5.10;99.90;;;;;;5084986;28;20555;-59
2022/03/18 03:40:15;;;;;;;32.22;28.83;;;5.10;99.90;;;;;;5083940;27;20540;-59
2022/03/18 03:42:54;;;;;;;30.35;27.10;;;5.10;99.90;;;;;;5084503;27;20591;-59
2022/03/18 03:45:34;;;;;;;29.50;26.45;;;5.10;99.90;;;;;;5125753;27;20551;-59
2022/03/18 03:48:15;;;;;;;27.83;25.02;;;5.10;99.90;;;;;;5105920;27;20775;-59
2022/03/18 03:50:54;;;;;;;27.10;24.17;;;5.10;99.90;;;;;;5082413;27;20535;-59
2022/03/18 03:53:34;;;;;;;25.30;22.67;;;5.10;99.90;;;;;;5084438;27;20565;-59
2022/03/18 03:56:14;;;;;;;24.17;21.98;;;5.10;99.90;;;;;;5105172;27;20661;-59
2022/03/18 03:58:53;;;;;;;22.63;20.63;;;5.10;99.90;;;;;;5104857;27;20546;-59
2022/03/18 04:01:33;;;;;;;21.27;19.20;;;5.10;99.90;;;;;;5104624;27;20678;-59
2022/03/18 04:04:14;;;;;;;20.80;18.88;;;5.00;99.90;;;;;;5104367;27;20673;-59
2022/03/18 04:06:53;;;;;;;18.50;16.90;;;5.00;99.90;;;;;;5146385;27;20662;-59
2022/03/18 04:09:33;;;;;;;16.75;15.25;;;5.00;99.90;;;;;;5084122;28;21401;-59
2022/03/18 04:12:13;;;;;;;14.82;13.52;;;4.90;99.90;;;;;;5084353;28;21037;-59
2022/03/18 04:14:54;;;;;;;13.05;12.05;;;4.90;99.90;;;;;;5104793;27;20541;-59
2022/03/18 04:17:44;;;;;;;13.10;11.90;;;5.00;99.90;;;;;;5146040;27;20941;-59
2022/03/18 04:20:24;;;;;;;11.80;10.80;;;4.90;99.90;;;;;;5104184;27;20654;-59
2022/03/18 04:23:03;;;;;;;11.52;10.45;;;4.80;99.90;;;;;;5083954;27;20540;-59
2022/03/18 04:25:43;;;;;;;11.20;10.30;;;4.80;99.90;;;;;;5145991;27;20661;-59
2022/03/18 04:28:23;;;;;;;10.95;10.00;;;4.70;99.90;;;;;;5084785;27;20548;-59
2022/03/18 04:31:03;;;;;;;10.45;9.55;;;4.70;99.90;;;;;;5145345;27;20566;-59
2022/03/18 04:33:42;;;;;;;10.38;9.57;;;4.50;99.90;;;;;;5084454;28;20550;-59
2022/03/18 04:36:22;;;;;;;10.07;9.27;;;4.40;99.90;;;;;;5146315;27;20534;-59
2022/03/18 04:39:02;;;;;;;9.95;9.05;;;4.40;99.90;;;;;;5105090;27;20534;-59
2022/03/18 04:41:42;;;;;;;9.55;8.75;;;4.30;99.90;;;;;;5084302;28;20581;-59
2022/03/18 04:44:22;;;;;;;8.68;7.97;;;4.30;99.90;;;;;;5104804;27;20563;-59
2022/03/18 04:47:02;;;;;;;7.93;7.28;;;4.30;99.90;;;;;;5084800;28;20671;-59
2022/03/18 04:49:42;;;;;;;8.60;7.93;;;4.30;99.90;;;;;;5104439;27;20533;-59
2022/03/18 04:52:21;;;;;;;8.88;7.97;;;4.30;99.90;;;;;;5083061;27;20575;-59
2022/03/18 04:55:01;;;;;;;8.60;7.95;;;4.20;99.90;;;;;;5104535;27;20674;-59
2022/03/18 04:57:42;;;;;;;8.38;7.68;;;4.10;99.90;;;;;;5105523;27;20945;-59
2022/03/18 05:00:24;;;;;;;8.60;7.90;;;4.10;99.90;;;;;;5083659;27;20539;-59
2022/03/18 05:03:04;;;;;;;8.55;7.85;;;4.20;99.90;;;;;;5104615;27;21079;-59
2022/03/18 05:05:44;;;;;;;7.72;7.13;;;4.20;99.90;;;;;;5084349;27;20902;-59
2022/03/18 05:08:23;;;;;;;7.20;6.70;;;4.20;99.90;;;;;;5084795;27;20536;-59
2022/03/18 05:11:03;;;;;;;7.22;6.63;;;4.20;99.90;;;;;;5148073;27;20952;-59
2022/03/18 05:13:44;;;;;;;7.47;6.88;;;4.20;99.90;;;;;;5098421;27;20595;-59
2022/03/18 05:16:25;;;;;;;6.78;6.28;;;4.10;99.90;;;;;;5123017;27;20551;-59
2022/03/18 05:19:04;;;;;;;7.63;7.00;;;4.10;99.90;;;;;;5085391;27;20575;-59
2022/03/18 05:21:44;;;;;;;7.80;7.20;;;4.00;99.90;;;;;;5104917;27;21066;-59
2022/03/18 05:24:25;;;;;;;7.05;6.55;;;3.90;99.90;;;;;;5104711;27;20842;-59
2022/03/18 05:27:06;;;;;;;7.72;6.97;;;3.90;99.90;;;;;;5084854;28;20667;-59
2022/03/18 05:29:45;;;;;;;8.63;7.93;;;3.90;99.90;;;;;;5083889;27;20703;-59
2022/03/18 05:32:25;;;;;;;8.55;7.82;;;3.80;99.90;;;;;;5145814;27;21496;-59
2022/03/18 05:35:06;;;;;;;8.00;7.43;;;3.80;99.90;;;;;;5084362;27;21145;-59
2022/03/18 05:37:45;;;;;;;7.85;7.25;;;3.80;99.90;;;;;;5084799;27;20559;-59
2022/03/18 05:40:25;;;;;;;8.32;7.68;;;3.80;99.90;;;;;;5084137;27;20547;-59
2022/03/18 05:43:04;;;;;;;8.15;7.55;;;3.80;99.90;;;;;;5084503;28;20692;-59
2022/03/18 05:45:45;;;;;;;8.40;7.78;;;3.80;99.90;;;;;;5146478;27;20538;-59
2022/03/18 05:48:24;;;;;;;8.48;7.68;;;3.80;99.90;;;;;;5101987;27;20537;-59
2022/03/18 05:51:04;;;;;;;8.43;7.82;;;3.80;99.90;;;;;;5092600;27;20574;-59
2022/03/18 05:53:44;;;;;;;8.10;7.50;;;3.80;99.90;;;;;;5083789;27;20561;-59
2022/03/18 05:59:22;;;;;;;7.25;6.55;;;4.00;99.90;;;;;;5083410;28;20675;-59
2022/03/18 06:02:02;;;;;;;7.18;6.68;;;4.00;99.90;;;;;;5146228;27;21202;-59
2022/03/18 06:04:42;;;;;;;7.32;6.63;;;4.10;99.90;;;;;;5090636;27;20928;-59
2022/03/18 06:07:22;;;;;;;8.02;7.35;;;4.10;99.90;;;;;;5124703;27;20552;-59
2022/03/18 06:12:59;;;;;;;7.57;6.97;;;4.30;99.90;;;;;;5069441;28;20692;-59
2022/03/18 06:15:39;;;;;;;8.23;7.63;;;4.40;99.90;;;;;;5104654;27;20567;-59
2022/03/18 06:18:19;;;;;;;7.22;6.63;;;4.40;99.90;;;;;;5097479;27;20936;-59
2022/03/18 06:20:59;;;;;;;7.85;7.15;;;4.50;99.90;;;;;;5111502;27;20551;-59
2022/03/18 06:23:38;;;;;;;6.55;6.05;;;4.60;99.90;;;;;;5077557;27;20564;-59
2022/03/18 06:26:19;;;;;;;7.82;7.13;;;4.70;99.90;;;;;;5079921;27;21165;-59
2022/03/18 06:28:58;;;;;;;8.07;7.40;;;4.70;99.90;;;;;;5083606;27;20565;-59
2022/03/18 06:31:39;;;;;;;9.25;7.30;;;4.80;99.90;;;;;;5081423;27;21084;-59
2022/03/18 06:34:21;;;;;;;6.85;6.35;;;4.90;99.90;;;;;;5071118;28;20690;-59
2022/03/18 06:37:01;;;;;;;9.07;8.15;;;5.00;99.90;;;;;;5084688;27;20536;-59
2022/03/18 06:39:41;;;;;;;7.55;6.95;;;5.20;99.90;;;;;;5108968;27;20689;-59
2022/03/18 06:42:21;;;;;;;7.35;6.65;;;5.30;99.90;;;;;;5133247;27;21053;-58
2022/03/18 06:45:00;;;;;;;7.03;6.40;;;5.40;99.90;;;;;;5084681;27;20565;-58
2022/03/18 06:47:40;;;;;;;9.05;8.35;;;5.50;99.90;;;;;;5105205;27;21131;-58
2022/03/18 06:50:22;;;;;;;8.88;8.15;;;5.60;99.90;;;;;;5084197;28;20667;-58
2022/03/18 06:53:01;;;;;;;8.15;7.35;;;5.70;99.90;;;;;;5105357;27;21270;-59
2022/03/18 06:55:41;;;;;;;8.90;8.00;;;5.80;99.90;;;;;;5085199;28;20648;-59
2022/03/18 06:58:21;;;;;;;9.13;8.43;;;5.90;99.90;;;;;;5085156;28;20672;-58
2022/03/18 07:01:01;;;;;;;10.00;9.20;;;6.00;99.90;;;;;;5083845;28;20671;-58
2022/03/18 07:03:41;;;;;;;10.32;9.52;;;6.10;99.90;;;;;;5104371;27;20669;-58
2022/03/18 07:06:20;;;;;;;11.65;10.63;;;6.20;99.90;;;;;;5085205;28;20683;-58
2022/03/18 07:09:00;;;;;;;11.93;10.65;;;6.30;99.90;;;;;;5105419;27;20541;-58
2022/03/18 07:11:40;;;;;;;12.30;11.30;;;6.40;99.90;;;;;;5104648;27;20549;-58
2022/03/18 07:14:20;;;;;;;12.43;11.43;;;6.60;99.90;;;;;;5084408;28;20535;-58
2022/03/18 07:19:57;;;;;;;15.48;14.07;;;6.80;99.90;;;;;;5104522;27;21194;-58
2022/03/18 07:22:37;;;;;;;17.08;15.50;;;6.90;99.90;;;;;;5146629;27;20558;-58
2022/03/18 07:25:17;;;;;;;15.88;14.32;;;7.00;99.90;;;;;;5084524;28;20659;-58
2022/03/18 07:27:57;;;;;;;16.92;15.32;;;7.10;99.90;;;;;;5105066;27;20572;-58
2022/03/18 07:30:38;;;;;;;16.98;15.48;;;7.20;99.90;;;;;;5084354;27;20609;-58
2022/03/18 07:33:18;;;;;;;21.35;18.02;;;7.30;99.90;;;;;;5104912;27;20677;-58
2022/03/18 07:35:58;;;;;;;18.75;16.95;;;7.50;99.90;;;;;;5084971;28;20671;-59
2022/03/18 07:38:38;;;;;;;18.23;16.50;;;7.60;99.90;;;;;;5084651;27;20636;-58
2022/03/18 07:41:18;;;;;;;22.02;20.05;;;7.80;99.90;;;;;;5124577;27;20544;-58
2022/03/18 07:43:57;;;;;;;20.10;18.10;;;7.90;99.90;;;;;;5125026;27;20555;-59
2022/03/18 07:46:37;;;;;;;21.20;19.10;;;7.90;99.90;;;;;;5085449;27;20531;-58
2022/03/18 07:49:17;;;;;;;22.90;20.70;;;7.90;99.90;;;;;;5104640;27;20677;-58
2022/03/18 07:51:57;;;;;;;24.40;21.77;;;8.00;99.90;;;;;;5164594;27;21061;-58
2022/03/18 07:54:38;;;;;;;26.23;21.13;;;8.00;99.90;;;;;;5084321;28;21200;-58
2022/03/18 07:57:18;;;;;;;25.50;22.80;;;8.10;99.90;;;;;;5085107;27;20549;-58
2022/03/18 07:59:58;;;;;;;24.83;22.33;;;8.10;99.90;;;;;;5104857;27;20568;-58
2022/03/18 08:02:38;;;;;;;25.08;22.58;;;8.10;99.90;;;;;;5084674;27;20547;-58
2022/03/18 08:05:18;;;;;;;24.42;21.65;;;8.20;99.90;;;;;;5085910;28;20543;-58
2022/03/18 08:07:57;;;;;;;22.63;20.33;;;8.30;99.90;;;;;;5105890;27;20538;-58
2022/03/18 08:10:38;;;;;;;23.60;21.33;;;8.40;99.90;;;;;;5084629;28;20664;-58
2022/03/18 08:13:17;;;;;;;26.88;23.98;;;8.50;99.90;;;;;;5085158;27;20581;-58
2022/03/18 08:15:57;;;;;;;23.52;21.02;;;8.60;99.90;;;;;;5105400;27;21016;-58
2022/03/18 08:18:38;;;;;;;27.60;24.75;;;8.70;99.90;;;;;;5125987;27;20536;-58
2022/03/18 08:21:18;;;;;;;27.77;24.98;;;8.70;99.90;;;;;;5125001;27;20952;-58
2022/03/18 08:23:58;;;;;;;26.98;23.27;;;8.80;99.90;;;;;;5085055;27;20567;-58
2022/03/18 08:26:38;;;;;;;26.33;23.65;;;8.80;99.90;;;;;;5105410;27;20538;-58
2022/03/18 08:29:17;;;;;;;26.45;23.75;;;8.90;99.90;;;;;;5104943;27;20591;-59
2022/03/18 08:31:57;;;;;;;26.15;23.67;;;9.10;99.90;;;;;;5105210;27;20673;-58
2022/03/18 08:34:37;;;;;;;26.45;23.75;;;9.10;99.90;;;;;;5104385;27;20661;-58
2022/03/18 08:37:56;;;;;;;29.00;25.95;;;9.10;99.90;;;;;;5105090;27;21021;-58
2022/03/18 08:40:16;;;;;;;26.85;23.02;;;9.10;99.90;;;;;;5084144;27;20542;-58
2022/03/18 08:42:57;;;;;;;27.92;25.02;;;9.10;99.90;;;;;;5125678;27;21053;-58
2022/03/18 08:45:38;;;;;;;28.25;25.25;;;9.10;99.90;;;;;;5084616;28;20667;-58
2022/03/18 08:48:17;;;;;;;28.08;24.98;;;9.10;99.90;;;;;;5084715;27;20553;-58
2022/03/18 08:50:58;;;;;;;28.83;25.95;;;9.10;99.90;;;;;;5104143;27;20602;-58
2022/03/18 08:53:37;;;;;;;29.08;26.23;;;9.20;99.90;;;;;;5145439;27;21222;-58
2022/03/18 08:56:16;;;;;;;27.98;24.90;;;9.20;99.90;;;;;;5105331;27;20677;-58
2022/03/18 08:58:56;;;;;;;28.38;25.55;;;9.40;99.90;;;;;;5146371;27;20591;-59
2022/03/18 09:01:37;;;;;;;26.60;23.85;;;9.80;99.90;;;;;;5084528;27;20564;-58
2022/03/18 09:04:18;;;;;;;29.17;25.88;;;10.10;99.90;;;;;;5084045;28;20683;-58
2022/03/18 09:06:57;;;;;;;28.13;25.00;;;10.60;99.90;;;;;;5147053;27;20619;-59
2022/03/18 09:09:37;;;;;;;29.98;26.42;;;10.90;99.90;;;;;;5084162;27;20668;-58
2022/03/18 09:12:19;;;;;;;33.33;29.83;;;11.30;99.90;;;;;;5105066;27;20954;-58
2022/03/18 09:14:59;;;;;;;32.60;29.27;;;11.50;99.90;;;;;;5084295;28;20667;-58
2022/03/18 09:17:39;;;;;;;31.45;28.05;;;11.90;99.90;;;;;;5084704;27;20594;-59
2022/03/18 09:20:19;;;;;;;40.38;32.97;;;12.20;99.90;;;;;;5145319;27;21071;-59
2022/03/18 09:22:58;;;;;;;36.42;32.40;;;12.60;99.90;;;;;;5084477;27;20584;-58
2022/03/18 09:25:38;;;;;;;35.20;31.42;;;12.70;99.90;;;;;;5084811;28;20656;-58
2022/03/18 09:28:18;;;;;;;33.47;29.13;;;12.40;99.90;;;;;;5125510;27;20593;-58
2022/03/18 09:30:57;;;;;;;33.08;29.70;;;12.00;99.90;;;;;;5103989;27;20595;-58
2022/03/18 09:33:37;;;;;;;34.90;31.23;;;11.70;99.90;;;;;;5083793;27;20553;-58
2022/03/18 09:36:18;;;;;;;35.72;31.85;;;11.60;99.90;;;;;;5084850;28;21023;-59
2022/03/18 09:38:59;;;;;;;34.00;30.45;;;12.00;99.90;;;;;;5125376;27;20544;-59
2022/03/18 09:41:38;;;;;;;33.72;30.33;;;12.10;99.90;;;;;;5084559;27;20557;-59
2022/03/18 09:44:19;;;;;;;35.10;31.48;;;12.30;99.90;;;;;;5125057;27;21053;-58
2022/03/18 09:46:59;;;;;;;33.75;29.85;;;12.50;99.90;;;;;;5084837;27;21005;-59
2022/03/18 09:49:39;;;;;;;33.55;30.00;;;12.70;99.90;;;;;;5083611;28;20664;-59
2022/03/18 09:52:20;;;;;;;33.17;29.63;;;12.60;99.90;;;;;;5105409;27;20689;-58
2022/03/18 09:54:59;;;;;;;34.22;30.77;;;12.80;99.90;;;;;;5124880;27;20544;-59
2022/03/18 09:57:39;;;;;;;32.60;28.23;;;13.00;99.90;;;;;;5105818;27;20595;-59
2022/03/18 10:00:19;;;;;;;35.20;30.88;;;12.80;99.90;;;;;;5104113;27;20537;-59
2022/03/18 10:03:12;;;;;;;33.05;29.60;;;12.90;99.90;;;;;;5084257;28;20683;-59
2022/03/18 10:05:58;;;;;;;29.08;26.30;;;13.00;99.90;;;;;;5105301;27;20697;-59
2022/03/18 10:08:51;;;;;;;25.90;23.35;;;12.90;99.90;;;;;;5126436;27;20679;-58
2022/03/18 10:11:32;;;;;;;24.70;22.40;;;12.60;99.90;;;;;;5084541;28;20671;-58
2022/03/18 10:14:15;;;;;;;23.77;21.25;;;12.10;99.90;;;;;;5103497;27;20530;-59
2022/03/18 10:16:56;;;;;;;22.23;20.25;;;11.80;99.90;;;;;;5084575;27;21064;-58
2022/03/18 10:19:45;;;;;;;23.13;21.00;;;11.60;99.90;;;;;;5084258;27;21067;-58
2022/03/18 10:22:28;;;;;;;27.65;24.77;;;11.60;99.90;;;;;;5084916;28;20660;-58
2022/03/18 10:25:08;;;;;;;30.20;27.15;;;11.70;99.90;;;;;;5124922;27;20678;-58
2022/03/18 10:27:50;;;;;;;33.33;29.92;;;12.00;99.90;;;;;;5146348;27;21199;-58
2022/03/18 10:30:31;;;;;;;35.28;31.25;;;12.40;99.90;;;;;;5084490;28;21187;-59
2022/03/18 10:33:09;;;;;;;34.08;29.88;;;12.70;99.90;;;;;;5145553;27;21060;-59
2022/03/18 10:38:47;;;;;;;36.75;33.03;;;12.80;99.90;;;;;;5146663;27;20534;-59
2022/03/18 10:41:27;;;;;;;35.08;31.38;;;13.00;99.90;;;;;;5103358;27;20574;-59
2022/03/18 10:44:10;;;;;;;32.80;29.23;;;13.00;99.90;;;;;;5082303;27;21066;-59
2022/03/18 10:46:53;;;;;;;33.10;29.75;;;13.00;99.90;;;;;;5123893;27;20668;-59
2022/03/18 10:49:32;;;;;;;34.35;30.88;;;12.80;99.90;;;;;;5102592;27;21223;-59
2022/03/18 10:52:13;;;;;;;32.22;28.83;;;12.70;99.90;;;;;;5082731;28;20713;-59
2022/03/18 10:54:54;;;;;;;33.13;29.60;;;12.70;99.90;;;;;;5102912;27;20667;-59
2022/03/18 10:57:35;;;;;;;33.25;29.23;;;12.80;99.90;;;;;;5103957;27;20534;-59
2022/03/18 11:00:16;;;;;;;34.28;30.58;;;12.80;99.90;;;;;;5104317;27;20902;-59
2022/03/18 11:02:58;;;;;;;35.17;30.25;;;12.80;99.90;;;;;;5125304;27;21032;-58
2022/03/18 11:05:39;;;;;;;34.72;31.25;;;12.70;99.90;;;;;;5085044;27;20537;-58
2022/03/18 11:08:22;;;;;;;34.45;30.88;;;12.50;99.90;;;;;;5085592;28;20663;-59
2022/03/18 11:11:11;;;;;;;35.40;31.38;;;12.30;99.90;;;;;;5104402;27;21066;-58
2022/03/18 11:13:56;;;;;;;34.33;31.10;;;12.40;99.90;;;;;;5084500;27;20539;-58
2022/03/18 11:16:38;;;;;;;31.38;28.20;;;12.60;99.90;;;;;;5146617;27;21196;-58
2022/03/18 11:19:20;;;;;;;35.80;30.42;;;12.60;99.90;;;;;;5104483;27;20631;-58
2022/03/18 11:22:03;;;;;;;34.85;30.85;;;12.60;99.90;;;;;;5105697;27;20685;-59
2022/03/18 11:24:43;;;;;;;31.77;28.67;;;12.80;99.90;;;;;;5105043;27;21158;-59
2022/03/18 11:27:22;;;;;;;29.77;26.85;;;13.10;99.90;;;;;;5105457;27;20834;-59
2022/03/18 11:30:23;;;;;;;33.20;29.80;;;13.10;99.90;;;;;;5084159;27;20528;-59
2022/03/18 11:33:22;;;;;;;33.70;29.92;;;12.90;99.90;;;;;;5084409;27;20811;-59
2022/03/18 11:36:13;;;;;;;32.70;29.20;;;13.10;99.90;;;;;;5084374;28;20664;-59
2022/03/18 11:39:03;;;;;;;32.53;29.05;;;13.30;99.90;;;;;;5146723;27;20543;-59
2022/03/18 11:41:55;;;;;;;31.40;28.17;;;13.30;99.90;;;;;;5105033;27;21033;-59
2022/03/18 11:44:53;;;;;;;33.33;29.85;;;13.20;99.90;;;;;;5104416;27;20665;-59
2022/03/18 11:47:40;;;;;;;33.55;29.80;;;13.00;99.90;;;;;;5084525;27;21288;-59
2022/03/18 11:50:39;;;;;;;32.53;28.67;;;12.90;99.90;;;;;;5104055;27;20679;-59
2022/03/18 11:53:51;;;;;;;33.38;28.90;;;13.00;99.90;;;;;;5084414;27;20535;-59
2022/03/18 11:56:47;;;;;;;32.47;28.98;;;13.00;99.90;;;;;;5084980;27;20553;-59
2022/03/18 11:59:47;;;;;;;33.17;29.60;;;13.10;99.90;;;;;;5084267;27;20553;-58
2022/03/18 12:02:33;;;;;;;35.78;31.65;;;13.10;99.90;;;;;;5151146;27;20663;-58
2022/03/18 12:05:19;;;;;;;35.35;31.77;;;13.10;99.90;;;;;;5083863;27;20572;-59
2022/03/18 12:08:02;;;;;;;32.85;29.45;;;13.10;99.90;;;;;;5085443;28;21109;-59
2022/03/18 12:10:41;;;;;;;34.58;30.90;;;13.10;99.90;;;;;;5084101;27;20547;-59
2022/03/18 12:13:21;;;;;;;35.72;31.55;;;13.30;99.90;;;;;;5084599;27;20890;-59
2022/03/18 12:16:01;;;;;;;34.95;31.20;;;13.60;99.90;;;;;;5084338;27;20565;-59
2022/03/18 12:18:40;;;;;;;35.17;31.15;;;13.80;99.90;;;;;;5084513;27;21018;-59
2022/03/18 12:21:34;;;;;;;32.72;29.30;;;13.80;99.90;;;;;;5103088;27;20678;-58
2022/03/18 12:24:14;;;;;;;35.67;31.67;;;13.60;99.90;;;;;;5083819;28;20675;-59
2022/03/18 12:26:53;;;;;;;33.00;29.50;;;13.60;99.90;;;;;;5084523;28;20672;-56
2022/03/18 12:29:33;;;;;;;33.85;30.15;;;13.50;99.90;;;;;;5104210;27;20538;-58
2022/03/18 12:32:15;;;;;;;33.53;30.00;;;13.50;99.90;;;;;;5083640;28;20676;-58
2022/03/18 12:34:57;;;;;;;30.80;27.67;;;13.50;99.90;;;;;;5057694;27;20615;-59
2022/03/18 12:37:37;;;;;;;33.28;29.77;;;13.50;99.90;;;;;;5073392;28;20687;-59
2022/03/18 12:40:19;;;;;;;35.17;31.58;;;13.60;99.90;;;;;;5083490;27;20569;-59
2022/03/18 12:42:59;;;;;;;33.08;28.80;;;13.80;99.90;;;;;;5078449;28;20691;-59
2022/03/18 12:45:42;;;;;;;33.15;29.80;;;14.00;99.90;;;;;;5124449;27;20566;-59
2022/03/18 12:48:23;;;;;;;31.67;28.40;;;14.20;99.90;;;;;;5093631;27;20687;-58
2022/03/18 12:51:03;;;;;;;33.60;30.00;;;14.20;99.90;;;;;;5078435;28;21185;-59
2022/03/18 12:53:46;;;;;;;31.50;28.27;;;14.20;99.90;;;;;;5070825;28;20695;-58
2022/03/18 12:56:29;;;;;;;33.40;30.13;;;14.20;99.90;;;;;;5069490;28;20556;-59
2022/03/18 12:59:15;;;;;;;32.20;28.75;;;14.00;99.90;;;;;;5084001;27;21076;-58
2022/03/18 13:01:56;;;;;;;31.77;28.55;;;13.80;99.90;;;;;;5128443;27;20722;-59
2022/03/18 13:04:37;;;;;;;30.60;27.42;;;13.70;99.90;;;;;;5143020;27;20692;-59
2022/03/18 13:07:18;;;;;;;28.88;26.00;;;13.70;99.90;;;;;;5135390;27;21198;-58
2022/03/18 13:09:58;;;;;;;30.70;27.73;;;14.00;99.90;;;;;;5140906;27;20978;-59
2022/03/18 13:12:37;;;;;;;29.88;26.73;;;14.20;99.90;;;;;;5080488;27;20568;-59
2022/03/18 13:15:18;;;;;;;30.48;27.30;;;14.30;99.90;;;;;;5094582;27;20689;-59
2022/03/18 13:18:09;;;;;;;27.85;25.15;;;14.30;99.90;;;;;;5069854;27;21081;-59
2022/03/18 13:20:55;;;;;;;29.80;26.98;;;14.20;99.90;;;;;;5137150;27;21037;-59
2022/03/18 13:23:39;;;;;;;28.23;25.52;;;14.20;99.90;;;;;;5080154;27;20607;-59
2022/03/18 13:26:20;;;;;;;31.75;28.63;;;14.30;99.90;;;;;;5072296;28;20666;-59
2022/03/18 13:28:59;;;;;;;31.27;28.10;;;14.40;99.90;;;;;;5083689;28;20981;-59
2022/03/18 13:34:36;;;;;;;30.20;27.10;;;14.00;99.90;;;;;;5083152;28;20593;-59
2022/03/18 13:37:18;;;;;;;29.05;26.20;;;13.80;99.90;;;;;;5146183;27;20600;-59
2022/03/18 13:40:10;;;;;;;31.25;28.10;;;13.50;99.90;;;;;;5124937;27;20663;-59
2022/03/18 13:43:04;;;;;;;28.40;25.42;;;13.40;99.90;;;;;;5146697;27;20607;-58
2022/03/18 13:45:44;;;;;;;28.52;25.85;;;13.10;99.90;;;;;;5141729;27;20904;-59
2022/03/18 13:48:27;;;;;;;27.92;25.02;;;12.90;99.90;;;;;;5105009;27;20549;-58
2022/03/18 13:51:07;;;;;;;30.48;27.38;;;12.80;99.90;;;;;;5082642;27;21028;-58
2022/03/18 13:53:46;;;;;;;29.73;26.65;;;12.60;99.90;;;;;;5104421;27;20657;-58
2022/03/18 13:56:26;;;;;;;27.98;25.27;;;12.50;99.90;;;;;;5146308;27;20542;-58
2022/03/18 13:59:15;;;;;;;28.75;25.92;;;12.40;99.90;;;;;;5143909;27;20681;-58
2022/03/18 14:02:02;;;;;;;29.05;26.05;;;12.30;99.90;;;;;;5083712;28;20675;-59
2022/03/18 14:04:43;;;;;;;26.55;24.00;;;12.30;99.90;;;;;;5103713;27;21135;-59
2022/03/18 14:07:43;;;;;;;29.27;26.45;;;12.30;99.90;;;;;;5099929;27;20690;-58
2022/03/18 14:10:35;;;;;;;27.17;24.48;;;12.20;99.90;;;;;;5082853;27;21016;-58